sensor_id;sensor_type;location;lat;lon;timestamp;temperature;humidity
27506;DHT22;14939;43.596;1.320;2023-04-03T00:02:07;9.00;99.90
27506;DHT22;14939;43.596;1.320;2023-04-03T00:04:33;9.00;99.90
27506;DHT22;14939;43.596;1.320;2023-04-03T00:06:59;9.00;99.90
27506;DHT22;14939;43.596;1.320;2023-04-03T00:09:24;9.00;99.90
27506;DHT22;14939;43.596;1.320;2023-04-03T00:11:50;9.00;99.90
27506;DHT22;14939;43.596;1.320;2023-04-03T00:14:16;9.00;99.90
27506;DHT22;14939;43.596;1.320;2023-04-03T00:16:42;9.00;99.90
27506;DHT22;14939;43.596;1.320;2023-04-03T00:19:08;9.00;99.90
27506;DHT22;14939;43.596;1.320;2023-04-03T00:21:33;9.00;99.90
27506;DHT22;14939;43.596;1.320;2023-04-03T00:23:59;9.00;99.90
27506;DHT22;14939;43.596;1.320;2023-04-03T00:26:25;9.00;99.90
27506;DHT22;14939;43.596;1.320;2023-04-03T00:28:51;9.00;99.90
27506;DHT22;14939;43.596;1.320;2023-04-03T00:31:17;9.00;99.90
27506;DHT22;14939;43.596;1.320;2023-04-03T00:33:43;8.90;99.90
27506;DHT22;14939;43.596;1.320;2023-04-03T00:36:10;8.90;99.90
27506;DHT22;14939;43.596;1.320;2023-04-03T00:38:36;8.90;99.90
27506;DHT22;14939;43.596;1.320;2023-04-03T00:41:02;8.90;99.90
27506;DHT22;14939;43.596;1.320;2023-04-03T00:43:28;8.90;99.90
27506;DHT22;14939;43.596;1.320;2023-04-03T00:45:56;9.00;99.90
27506;DHT22;14939;43.596;1.320;2023-04-03T00:50:59;9.00;99.90
27506;DHT22;14939;43.596;1.320;2023-04-03T00:53:35;9.00;99.90
27506;DHT22;14939;43.596;1.320;2023-04-03T00:56:06;8.90;99.90
27506;DHT22;14939;43.596;1.320;2023-04-03T00:58:49;8.90;99.90
27506;DHT22;14939;43.596;1.320;2023-04-03T01:01:20;8.90;99.90
27506;DHT22;14939;43.596;1.320;2023-04-03T01:03:47;8.90;99.90
27506;DHT22;14939;43.596;1.320;2023-04-03T01:06:14;8.90;99.90
27506;DHT22;14939;43.596;1.320;2023-04-03T01:08:41;8.90;99.90
27506;DHT22;14939;43.596;1.320;2023-04-03T01:11:07;8.90;99.90
27506;DHT22;14939;43.596;1.320;2023-04-03T01:13:33;8.90;99.90
27506;DHT22;14939;43.596;1.320;2023-04-03T01:16:04;8.90;99.90
27506;DHT22;14939;43.596;1.320;2023-04-03T01:18:31;8.90;99.90
27506;DHT22;14939;43.596;1.320;2023-04-03T01:21:23;8.90;99.90
27506;DHT22;14939;43.596;1.320;2023-04-03T01:23:58;8.90;99.90
27506;DHT22;14939;43.596;1.320;2023-04-03T01:26:25;8.90;99.90
27506;DHT22;14939;43.596;1.320;2023-04-03T01:28:54;8.80;99.90
27506;DHT22;14939;43.596;1.320;2023-04-03T01:34:11;8.70;99.90
27506;DHT22;14939;43.596;1.320;2023-04-03T01:36:37;8.60;99.90
27506;DHT22;14939;43.596;1.320;2023-04-03T01:39:03;8.60;99.90
27506;DHT22;14939;43.596;1.320;2023-04-03T01:41:29;8.60;99.90
27506;DHT22;14939;43.596;1.320;2023-04-03T01:43:55;8.60;99.90
27506;DHT22;14939;43.596;1.320;2023-04-03T01:46:21;8.60;99.90
27506;DHT22;14939;43.596;1.320;2023-04-03T01:48:47;8.60;99.90
27506;DHT22;14939;43.596;1.320;2023-04-03T01:51:13;8.60;99.90
27506;DHT22;14939;43.596;1.320;2023-04-03T01:53:38;8.60;99.90
27506;DHT22;14939;43.596;1.320;2023-04-03T01:56:04;8.50;99.90
27506;DHT22;14939;43.596;1.320;2023-04-03T01:58:30;8.50;99.90
27506;DHT22;14939;43.596;1.320;2023-04-03T02:00:56;8.40;99.90
27506;DHT22;14939;43.596;1.320;2023-04-03T02:03:23;8.40;99.90
27506;DHT22;14939;43.596;1.320;2023-04-03T02:05:49;8.40;99.90
27506;DHT22;14939;43.596;1.320;2023-04-03T02:08:15;8.40;99.90
27506;DHT22;14939;43.596;1.320;2023-04-03T02:10:44;8.40;99.90
27506;DHT22;14939;43.596;1.320;2023-04-03T02:13:10;8.40;99.90
27506;DHT22;14939;43.596;1.320;2023-04-03T02:15:38;8.30;99.90
27506;DHT22;14939;43.596;1.320;2023-04-03T02:18:05;8.40;99.90
27506;DHT22;14939;43.596;1.320;2023-04-03T02:20:30;8.40;99.90
27506;DHT22;14939;43.596;1.320;2023-04-03T02:22:56;8.40;99.90
27506;DHT22;14939;43.596;1.320;2023-04-03T02:25:22;8.40;99.90
27506;DHT22;14939;43.596;1.320;2023-04-03T02:27:47;8.40;99.90
27506;DHT22;14939;43.596;1.320;2023-04-03T02:30:13;8.40;99.90
27506;DHT22;14939;43.596;1.320;2023-04-03T02:32:40;8.40;99.90
27506;DHT22;14939;43.596;1.320;2023-04-03T02:35:06;8.40;99.90
27506;DHT22;14939;43.596;1.320;2023-04-03T02:37:32;8.40;99.90
27506;DHT22;14939;43.596;1.320;2023-04-03T02:39:58;8.30;99.90
27506;DHT22;14939;43.596;1.320;2023-04-03T02:42:24;8.30;99.90
27506;DHT22;14939;43.596;1.320;2023-04-03T02:44:49;8.30;99.90
27506;DHT22;14939;43.596;1.320;2023-04-03T02:47:15;8.30;99.90
27506;DHT22;14939;43.596;1.320;2023-04-03T02:49:41;8.30;99.90
27506;DHT22;14939;43.596;1.320;2023-04-03T02:52:09;8.30;99.90
27506;DHT22;14939;43.596;1.320;2023-04-03T02:54:35;8.30;99.90
27506;DHT22;14939;43.596;1.320;2023-04-03T02:57:00;8.30;99.90
27506;DHT22;14939;43.596;1.320;2023-04-03T02:59:26;8.30;99.90
27506;DHT22;14939;43.596;1.320;2023-04-03T03:01:52;8.30;99.90
27506;DHT22;14939;43.596;1.320;2023-04-03T03:04:18;8.30;99.90
27506;DHT22;14939;43.596;1.320;2023-04-03T03:06:44;8.30;99.90
27506;DHT22;14939;43.596;1.320;2023-04-03T03:09:09;8.30;99.90
27506;DHT22;14939;43.596;1.320;2023-04-03T03:11:35;8.20;99.90
27506;DHT22;14939;43.596;1.320;2023-04-03T03:14:01;8.20;99.90
27506;DHT22;14939;43.596;1.320;2023-04-03T03:16:27;8.20;99.90
27506;DHT22;14939;43.596;1.320;2023-04-03T03:18:52;8.20;99.90
27506;DHT22;14939;43.596;1.320;2023-04-03T03:21:18;8.20;99.90
27506;DHT22;14939;43.596;1.320;2023-04-03T03:23:44;8.20;99.90
27506;DHT22;14939;43.596;1.320;2023-04-03T03:26:10;8.20;99.90
27506;DHT22;14939;43.596;1.320;2023-04-03T03:28:38;8.20;99.90
27506;DHT22;14939;43.596;1.320;2023-04-03T03:31:04;8.20;99.90
27506;DHT22;14939;43.596;1.320;2023-04-03T03:33:31;8.20;99.90
27506;DHT22;14939;43.596;1.320;2023-04-03T03:35:57;8.30;99.90
27506;DHT22;14939;43.596;1.320;2023-04-03T03:38:23;8.30;99.90
27506;DHT22;14939;43.596;1.320;2023-04-03T03:40:49;8.30;99.90
27506;DHT22;14939;43.596;1.320;2023-04-03T03:43:16;8.30;99.90
27506;DHT22;14939;43.596;1.320;2023-04-03T03:45:42;8.30;99.90
27506;DHT22;14939;43.596;1.320;2023-04-03T03:48:07;8.30;99.90
27506;DHT22;14939;43.596;1.320;2023-04-03T03:50:33;8.30;99.90
27506;DHT22;14939;43.596;1.320;2023-04-03T03:52:59;8.30;99.90
27506;DHT22;14939;43.596;1.320;2023-04-03T03:55:25;8.30;99.90
27506;DHT22;14939;43.596;1.320;2023-04-03T03:57:51;8.30;99.90
27506;DHT22;14939;43.596;1.320;2023-04-03T04:00:17;8.30;99.90
27506;DHT22;14939;43.596;1.320;2023-04-03T04:02:43;8.30;99.90
27506;DHT22;14939;43.596;1.320;2023-04-03T04:05:09;8.30;99.90
27506;DHT22;14939;43.596;1.320;2023-04-03T04:07:35;8.30;99.90
27506;DHT22;14939;43.596;1.320;2023-04-03T04:10:01;8.30;99.90
27506;DHT22;14939;43.596;1.320;2023-04-03T04:12:26;8.30;99.90
27506;DHT22;14939;43.596;1.320;2023-04-03T04:14:52;8.30;99.90
27506;DHT22;14939;43.596;1.320;2023-04-03T04:17:18;8.30;99.90
27506;DHT22;14939;43.596;1.320;2023-04-03T04:19:43;8.40;99.90
27506;DHT22;14939;43.596;1.320;2023-04-03T04:22:09;8.30;99.90
27506;DHT22;14939;43.596;1.320;2023-04-03T04:24:34;8.30;99.90
27506;DHT22;14939;43.596;1.320;2023-04-03T04:27:00;8.30;99.90
27506;DHT22;14939;43.596;1.320;2023-04-03T04:29:26;8.30;99.90
27506;DHT22;14939;43.596;1.320;2023-04-03T04:31:51;8.30;99.90
27506;DHT22;14939;43.596;1.320;2023-04-03T04:34:17;8.30;99.90
27506;DHT22;14939;43.596;1.320;2023-04-03T04:36:43;8.30;99.90
27506;DHT22;14939;43.596;1.320;2023-04-03T04:39:08;8.30;99.90
27506;DHT22;14939;43.596;1.320;2023-04-03T04:41:34;8.40;99.90
27506;DHT22;14939;43.596;1.320;2023-04-03T04:44:00;8.30;99.90
27506;DHT22;14939;43.596;1.320;2023-04-03T04:46:26;8.30;99.90
27506;DHT22;14939;43.596;1.320;2023-04-03T04:48:52;8.40;99.90
27506;DHT22;14939;43.596;1.320;2023-04-03T04:51:18;8.30;99.90
27506;DHT22;14939;43.596;1.320;2023-04-03T04:53:44;8.30;99.90
27506;DHT22;14939;43.596;1.320;2023-04-03T04:56:16;8.30;99.90
27506;DHT22;14939;43.596;1.320;2023-04-03T04:59:00;8.30;99.90
27506;DHT22;14939;43.596;1.320;2023-04-03T05:01:26;8.30;99.90
27506;DHT22;14939;43.596;1.320;2023-04-03T05:03:52;8.30;99.90
27506;DHT22;14939;43.596;1.320;2023-04-03T05:06:17;8.30;99.90
27506;DHT22;14939;43.596;1.320;2023-04-03T05:08:43;8.40;99.90
27506;DHT22;14939;43.596;1.320;2023-04-03T05:11:09;8.30;99.90
27506;DHT22;14939;43.596;1.320;2023-04-03T05:13:35;8.30;99.90
27506;DHT22;14939;43.596;1.320;2023-04-03T05:16:00;8.30;99.90
27506;DHT22;14939;43.596;1.320;2023-04-03T05:18:26;8.40;99.90
27506;DHT22;14939;43.596;1.320;2023-04-03T05:20:52;8.40;99.90
27506;DHT22;14939;43.596;1.320;2023-04-03T05:23:17;8.40;99.90
27506;DHT22;14939;43.596;1.320;2023-04-03T05:25:43;8.40;99.90
27506;DHT22;14939;43.596;1.320;2023-04-03T05:28:11;8.40;99.90
27506;DHT22;14939;43.596;1.320;2023-04-03T05:30:36;8.30;99.90
27506;DHT22;14939;43.596;1.320;2023-04-03T05:33:03;8.30;99.90
27506;DHT22;14939;43.596;1.320;2023-04-03T05:35:29;8.30;99.90
27506;DHT22;14939;43.596;1.320;2023-04-03T05:37:54;8.30;99.90
27506;DHT22;14939;43.596;1.320;2023-04-03T05:40:20;8.30;99.90
27506;DHT22;14939;43.596;1.320;2023-04-03T05:42:46;8.30;99.90
27506;DHT22;14939;43.596;1.320;2023-04-03T05:45:16;8.30;99.90
27506;DHT22;14939;43.596;1.320;2023-04-03T05:47:42;8.30;99.90
27506;DHT22;14939;43.596;1.320;2023-04-03T05:50:14;8.30;99.90
27506;DHT22;14939;43.596;1.320;2023-04-03T05:52:43;8.30;99.90
27506;DHT22;14939;43.596;1.320;2023-04-03T05:55:10;8.30;99.90
27506;DHT22;14939;43.596;1.320;2023-04-03T05:57:36;8.30;99.90
27506;DHT22;14939;43.596;1.320;2023-04-03T06:00:04;8.30;99.90
27506;DHT22;14939;43.596;1.320;2023-04-03T06:02:31;8.40;99.90
27506;DHT22;14939;43.596;1.320;2023-04-03T06:04:57;8.40;99.90
27506;DHT22;14939;43.596;1.320;2023-04-03T06:07:24;8.40;99.90
27506;DHT22;14939;43.596;1.320;2023-04-03T06:09:54;8.40;99.90
27506;DHT22;14939;43.596;1.320;2023-04-03T06:12:22;8.40;99.90
27506;DHT22;14939;43.596;1.320;2023-04-03T06:14:48;8.50;99.90
27506;DHT22;14939;43.596;1.320;2023-04-03T06:17:17;8.50;99.90
27506;DHT22;14939;43.596;1.320;2023-04-03T06:19:44;8.50;99.90
27506;DHT22;14939;43.596;1.320;2023-04-03T06:22:10;8.50;99.90
27506;DHT22;14939;43.596;1.320;2023-04-03T06:24:37;8.50;99.90
27506;DHT22;14939;43.596;1.320;2023-04-03T06:27:03;8.60;99.90
27506;DHT22;14939;43.596;1.320;2023-04-03T06:29:29;8.60;99.90
27506;DHT22;14939;43.596;1.320;2023-04-03T06:31:55;8.60;99.90
27506;DHT22;14939;43.596;1.320;2023-04-03T06:34:21;8.60;99.90
27506;DHT22;14939;43.596;1.320;2023-04-03T06:36:47;8.60;99.90
27506;DHT22;14939;43.596;1.320;2023-04-03T06:39:21;8.60;99.90
27506;DHT22;14939;43.596;1.320;2023-04-03T06:41:48;8.70;99.90
27506;DHT22;14939;43.596;1.320;2023-04-03T06:44:14;8.70;99.90
27506;DHT22;14939;43.596;1.320;2023-04-03T06:46:42;8.70;99.90
27506;DHT22;14939;43.596;1.320;2023-04-03T06:49:08;8.80;99.90
27506;DHT22;14939;43.596;1.320;2023-04-03T06:51:36;8.70;99.90
27506;DHT22;14939;43.596;1.320;2023-04-03T06:54:03;8.80;99.90
27506;DHT22;14939;43.596;1.320;2023-04-03T06:56:29;8.80;99.90
27506;DHT22;14939;43.596;1.320;2023-04-03T06:58:56;8.90;99.90
27506;DHT22;14939;43.596;1.320;2023-04-03T07:01:24;8.90;99.90
27506;DHT22;14939;43.596;1.320;2023-04-03T07:03:52;9.00;99.90
27506;DHT22;14939;43.596;1.320;2023-04-03T07:06:19;9.00;99.90
27506;DHT22;14939;43.596;1.320;2023-04-03T07:08:45;9.00;99.90
27506;DHT22;14939;43.596;1.320;2023-04-03T07:11:12;9.00;99.90
27506;DHT22;14939;43.596;1.320;2023-04-03T07:13:38;9.00;99.90
27506;DHT22;14939;43.596;1.320;2023-04-03T07:16:04;9.00;99.90
27506;DHT22;14939;43.596;1.320;2023-04-03T07:18:32;9.10;99.90
27506;DHT22;14939;43.596;1.320;2023-04-03T07:20:58;9.10;99.90
27506;DHT22;14939;43.596;1.320;2023-04-03T07:23:24;9.00;99.90
27506;DHT22;14939;43.596;1.320;2023-04-03T07:25:51;9.10;99.90
27506;DHT22;14939;43.596;1.320;2023-04-03T07:28:19;9.10;99.90
27506;DHT22;14939;43.596;1.320;2023-04-03T07:30:46;9.20;99.90
27506;DHT22;14939;43.596;1.320;2023-04-03T07:33:14;9.20;99.90
27506;DHT22;14939;43.596;1.320;2023-04-03T07:35:40;9.30;99.90
27506;DHT22;14939;43.596;1.320;2023-04-03T07:38:06;9.30;99.90
27506;DHT22;14939;43.596;1.320;2023-04-03T07:40:33;9.40;99.90
27506;DHT22;14939;43.596;1.320;2023-04-03T07:42:58;9.40;99.90
27506;DHT22;14939;43.596;1.320;2023-04-03T07:45:25;9.60;99.90
27506;DHT22;14939;43.596;1.320;2023-04-03T07:47:51;9.60;99.90
27506;DHT22;14939;43.596;1.320;2023-04-03T07:50:17;9.70;99.90
27506;DHT22;14939;43.596;1.320;2023-04-03T07:52:43;9.70;99.90
27506;DHT22;14939;43.596;1.320;2023-04-03T07:55:09;9.80;99.90
27506;DHT22;14939;43.596;1.320;2023-04-03T07:57:35;9.80;99.90
27506;DHT22;14939;43.596;1.320;2023-04-03T08:00:02;9.90;99.90
27506;DHT22;14939;43.596;1.320;2023-04-03T08:02:28;9.90;99.90
27506;DHT22;14939;43.596;1.320;2023-04-03T08:04:54;10.00;99.90
27506;DHT22;14939;43.596;1.320;2023-04-03T08:07:20;10.10;99.90
27506;DHT22;14939;43.596;1.320;2023-04-03T08:09:46;10.20;99.90
27506;DHT22;14939;43.596;1.320;2023-04-03T08:12:12;10.20;99.90
27506;DHT22;14939;43.596;1.320;2023-04-03T08:14:37;10.10;99.90
27506;DHT22;14939;43.596;1.320;2023-04-03T08:17:03;10.00;99.90
27506;DHT22;14939;43.596;1.320;2023-04-03T08:19:30;10.00;99.90
27506;DHT22;14939;43.596;1.320;2023-04-03T08:21:56;10.00;99.90
27506;DHT22;14939;43.596;1.320;2023-04-03T08:24:24;10.00;99.90
27506;DHT22;14939;43.596;1.320;2023-04-03T08:26:50;9.80;99.90
27506;DHT22;14939;43.596;1.320;2023-04-03T08:29:16;9.80;99.90
27506;DHT22;14939;43.596;1.320;2023-04-03T08:31:42;9.80;99.90
27506;DHT22;14939;43.596;1.320;2023-04-03T08:34:08;9.90;99.90
27506;DHT22;14939;43.596;1.320;2023-04-03T08:36:34;10.00;99.90
27506;DHT22;14939;43.596;1.320;2023-04-03T08:38:59;10.00;99.90
27506;DHT22;14939;43.596;1.320;2023-04-03T08:47:02;10.00;99.90
27506;DHT22;14939;43.596;1.320;2023-04-03T08:49:48;10.00;99.90
27506;DHT22;14939;43.596;1.320;2023-04-03T08:55:04;10.10;99.90
27506;DHT22;14939;43.596;1.320;2023-04-03T08:57:34;10.40;99.90
27506;DHT22;14939;43.596;1.320;2023-04-03T09:00:04;10.60;99.90
27506;DHT22;14939;43.596;1.320;2023-04-03T09:02:47;10.70;99.90
27506;DHT22;14939;43.596;1.320;2023-04-03T09:05:20;10.90;99.90
27506;DHT22;14939;43.596;1.320;2023-04-03T09:08:15;11.00;99.90
27506;DHT22;14939;43.596;1.320;2023-04-03T09:10:44;11.10;99.90
27506;DHT22;14939;43.596;1.320;2023-04-03T09:13:18;11.00;99.90
27506;DHT22;14939;43.596;1.320;2023-04-03T09:15:48;11.00;99.90
27506;DHT22;14939;43.596;1.320;2023-04-03T09:18:28;11.00;99.90
27506;DHT22;14939;43.596;1.320;2023-04-03T09:21:12;11.10;99.90
27506;DHT22;14939;43.596;1.320;2023-04-03T09:23:52;11.10;99.90
27506;DHT22;14939;43.596;1.320;2023-04-03T09:26:23;11.00;99.90
27506;DHT22;14939;43.596;1.320;2023-04-03T09:28:53;11.00;99.90
27506;DHT22;14939;43.596;1.320;2023-04-03T09:31:23;11.00;99.90
27506;DHT22;14939;43.596;1.320;2023-04-03T09:33:52;11.10;98.80
27506;DHT22;14939;43.596;1.320;2023-04-03T09:36:58;11.40;99.90
27506;DHT22;14939;43.596;1.320;2023-04-03T09:39:27;11.60;99.90
27506;DHT22;14939;43.596;1.320;2023-04-03T09:42:03;11.40;98.80
27506;DHT22;14939;43.596;1.320;2023-04-03T09:44:32;11.30;98.60
27506;DHT22;14939;43.596;1.320;2023-04-03T09:46:59;11.50;98.40
27506;DHT22;14939;43.596;1.320;2023-04-03T09:49:26;11.90;98.10
27506;DHT22;14939;43.596;1.320;2023-04-03T09:51:52;11.70;97.30
27506;DHT22;14939;43.596;1.320;2023-04-03T09:54:37;11.70;96.00
27506;DHT22;14939;43.596;1.320;2023-04-03T09:57:11;11.70;95.70
27506;DHT22;14939;43.596;1.320;2023-04-03T09:59:42;11.90;93.10
27506;DHT22;14939;43.596;1.320;2023-04-03T10:04:56;12.30;92.20
27506;DHT22;14939;43.596;1.320;2023-04-03T10:07:40;12.30;92.50
27506;DHT22;14939;43.596;1.320;2023-04-03T10:10:20;12.50;91.70
27506;DHT22;14939;43.596;1.320;2023-04-03T10:12:48;12.40;91.00
27506;DHT22;14939;43.596;1.320;2023-04-03T10:15:16;12.70;91.10
27506;DHT22;14939;43.596;1.320;2023-04-03T10:17:49;12.30;86.10
27506;DHT22;14939;43.596;1.320;2023-04-03T10:28:45;12.40;82.20
27506;DHT22;14939;43.596;1.320;2023-04-03T10:36:38;13.30;81.50
27506;DHT22;14939;43.596;1.320;2023-04-03T10:39:37;13.00;77.00
27506;DHT22;14939;43.596;1.320;2023-04-03T10:45:24;12.70;78.40
27506;DHT22;14939;43.596;1.320;2023-04-03T10:48:06;12.80;76.20
27506;DHT22;14939;43.596;1.320;2023-04-03T10:53:08;13.00;77.10
27506;DHT22;14939;43.596;1.320;2023-04-03T10:58:32;13.00;77.90
27506;DHT22;14939;43.596;1.320;2023-04-03T11:01:09;13.00;77.80
27506;DHT22;14939;43.596;1.320;2023-04-03T11:03:53;13.10;76.90
27506;DHT22;14939;43.596;1.320;2023-04-03T11:06:21;13.00;76.80
27506;DHT22;14939;43.596;1.320;2023-04-03T11:08:53;13.30;76.60
27506;DHT22;14939;43.596;1.320;2023-04-03T11:11:32;13.10;75.80
27506;DHT22;14939;43.596;1.320;2023-04-03T11:14:29;12.90;77.20
27506;DHT22;14939;43.596;1.320;2023-04-03T11:19:59;12.10;80.60
27506;DHT22;14939;43.596;1.320;2023-04-03T11:22:42;12.20;81.60
27506;DHT22;14939;43.596;1.320;2023-04-03T11:33:10;12.10;83.60
27506;DHT22;14939;43.596;1.320;2023-04-03T11:35:42;12.10;83.30
27506;DHT22;14939;43.596;1.320;2023-04-03T11:38:17;12.10;82.80
27506;DHT22;14939;43.596;1.320;2023-04-03T11:40:45;12.10;81.10
27506;DHT22;14939;43.596;1.320;2023-04-03T11:43:28;12.20;81.30
27506;DHT22;14939;43.596;1.320;2023-04-03T11:46:00;12.50;80.80
27506;DHT22;14939;43.596;1.320;2023-04-03T11:50:58;12.80;79.00
27506;DHT22;14939;43.596;1.320;2023-04-03T11:53:40;12.60;77.90
27506;DHT22;14939;43.596;1.320;2023-04-03T12:01:56;12.80;77.10
27506;DHT22;14939;43.596;1.320;2023-04-03T12:04:25;13.00;77.20
27506;DHT22;14939;43.596;1.320;2023-04-03T12:09:57;13.20;77.00
27506;DHT22;14939;43.596;1.320;2023-04-03T12:12:39;12.80;75.40
27506;DHT22;14939;43.596;1.320;2023-04-03T12:15:26;12.60;74.70
27506;DHT22;14939;43.596;1.320;2023-04-03T12:17:52;12.50;74.00
27506;DHT22;14939;43.596;1.320;2023-04-03T12:29:25;13.60;69.30
27506;DHT22;14939;43.596;1.320;2023-04-03T12:40:55;13.40;65.10
27506;DHT22;14939;43.596;1.320;2023-04-03T12:43:47;13.30;67.10
27506;DHT22;14939;43.596;1.320;2023-04-03T12:46:26;13.20;69.30
27506;DHT22;14939;43.596;1.320;2023-04-03T12:48:57;13.10;70.40
27506;DHT22;14939;43.596;1.320;2023-04-03T12:54:03;13.40;68.50
27506;DHT22;14939;43.596;1.320;2023-04-03T12:56:32;13.60;66.50
27506;DHT22;14939;43.596;1.320;2023-04-03T12:59:22;13.80;64.30
27506;DHT22;14939;43.596;1.320;2023-04-03T13:01:59;14.00;62.40
27506;DHT22;14939;43.596;1.320;2023-04-03T13:04:27;14.00;61.20
27506;DHT22;14939;43.596;1.320;2023-04-03T13:06:53;14.30;62.50
27506;DHT22;14939;43.596;1.320;2023-04-03T13:09:29;14.20;61.50
27506;DHT22;14939;43.596;1.320;2023-04-03T13:14:26;14.50;60.20
27506;DHT22;14939;43.596;1.320;2023-04-03T13:19:24;14.20;58.70
27506;DHT22;14939;43.596;1.320;2023-04-03T13:21:59;14.50;58.20
27506;DHT22;14939;43.596;1.320;2023-04-03T13:24:27;14.40;58.30
27506;DHT22;14939;43.596;1.320;2023-04-03T13:26:55;14.30;59.10
27506;DHT22;14939;43.596;1.320;2023-04-03T13:29:39;14.10;59.30
27506;DHT22;14939;43.596;1.320;2023-04-03T13:32:05;14.10;58.90
27506;DHT22;14939;43.596;1.320;2023-04-03T13:34:40;14.30;59.40
27506;DHT22;14939;43.596;1.320;2023-04-03T13:37:11;14.20;59.00
27506;DHT22;14939;43.596;1.320;2023-04-03T13:39:44;14.40;58.90
27506;DHT22;14939;43.596;1.320;2023-04-03T13:42:23;14.60;57.30
27506;DHT22;14939;43.596;1.320;2023-04-03T13:44:49;14.90;58.00
27506;DHT22;14939;43.596;1.320;2023-04-03T13:47:38;15.10;57.70
27506;DHT22;14939;43.596;1.320;2023-04-03T13:50:25;15.00;55.30
27506;DHT22;14939;43.596;1.320;2023-04-03T13:55:27;15.00;57.10
27506;DHT22;14939;43.596;1.320;2023-04-03T14:02:59;13.50;59.80
27506;DHT22;14939;43.596;1.320;2023-04-03T14:05:25;13.50;59.20
27506;DHT22;14939;43.596;1.320;2023-04-03T14:07:53;13.80;60.60
27506;DHT22;14939;43.596;1.320;2023-04-03T14:10:19;13.80;60.80
27506;DHT22;14939;43.596;1.320;2023-04-03T14:12:45;13.80;59.70
27506;DHT22;14939;43.596;1.320;2023-04-03T14:15:24;14.00;59.70
27506;DHT22;14939;43.596;1.320;2023-04-03T14:17:52;14.20;58.90
27506;DHT22;14939;43.596;1.320;2023-04-03T14:20:20;14.60;59.40
27506;DHT22;14939;43.596;1.320;2023-04-03T14:22:47;14.70;57.80
27506;DHT22;14939;43.596;1.320;2023-04-03T14:25:14;14.70;57.60
27506;DHT22;14939;43.596;1.320;2023-04-03T14:27:47;14.50;58.00
27506;DHT22;14939;43.596;1.320;2023-04-03T14:30:23;14.30;59.20
27506;DHT22;14939;43.596;1.320;2023-04-03T14:32:50;14.10;59.20
27506;DHT22;14939;43.596;1.320;2023-04-03T14:35:16;13.90;61.60
27506;DHT22;14939;43.596;1.320;2023-04-03T14:37:43;13.70;60.90
27506;DHT22;14939;43.596;1.320;2023-04-03T14:40:14;13.70;62.20
27506;DHT22;14939;43.596;1.320;2023-04-03T14:42:40;13.70;62.50
27506;DHT22;14939;43.596;1.320;2023-04-03T14:45:09;13.70;62.10
27506;DHT22;14939;43.596;1.320;2023-04-03T14:47:40;13.80;62.00
27506;DHT22;14939;43.596;1.320;2023-04-03T14:50:11;14.10;62.80
27506;DHT22;14939;43.596;1.320;2023-04-03T14:52:38;14.00;62.30
27506;DHT22;14939;43.596;1.320;2023-04-03T14:55:05;13.90;61.50
27506;DHT22;14939;43.596;1.320;2023-04-03T14:57:32;14.10;61.20
27506;DHT22;14939;43.596;1.320;2023-04-03T14:59:58;14.10;60.60
27506;DHT22;14939;43.596;1.320;2023-04-03T15:02:31;14.10;58.80
27506;DHT22;14939;43.596;1.320;2023-04-03T15:04:58;14.00;58.90
27506;DHT22;14939;43.596;1.320;2023-04-03T15:07:26;13.80;60.00
27506;DHT22;14939;43.596;1.320;2023-04-03T15:09:52;13.70;59.80
27506;DHT22;14939;43.596;1.320;2023-04-03T15:12:18;13.50;60.50
27506;DHT22;14939;43.596;1.320;2023-04-03T15:14:44;13.50;60.10
27506;DHT22;14939;43.596;1.320;2023-04-03T15:17:18;13.80;58.90
27506;DHT22;14939;43.596;1.320;2023-04-03T15:19:45;13.80;57.80
27506;DHT22;14939;43.596;1.320;2023-04-03T15:22:16;13.80;58.50
27506;DHT22;14939;43.596;1.320;2023-04-03T15:24:43;13.80;58.50
27506;DHT22;14939;43.596;1.320;2023-04-03T15:27:10;14.20;58.00
27506;DHT22;14939;43.596;1.320;2023-04-03T15:29:37;14.00;57.70
27506;DHT22;14939;43.596;1.320;2023-04-03T15:32:03;14.20;56.40
27506;DHT22;14939;43.596;1.320;2023-04-03T15:34:29;14.70;55.80
27506;DHT22;14939;43.596;1.320;2023-04-03T15:36:55;14.60;56.50
27506;DHT22;14939;43.596;1.320;2023-04-03T15:39:21;14.60;55.90
27506;DHT22;14939;43.596;1.320;2023-04-03T15:41:49;14.50;56.60
27506;DHT22;14939;43.596;1.320;2023-04-03T15:44:14;14.70;56.40
27506;DHT22;14939;43.596;1.320;2023-04-03T15:46:44;14.80;56.70
27506;DHT22;14939;43.596;1.320;2023-04-03T15:49:10;14.90;54.20
27506;DHT22;14939;43.596;1.320;2023-04-03T15:51:36;14.80;53.90
27506;DHT22;14939;43.596;1.320;2023-04-03T15:54:01;14.50;55.30
27506;DHT22;14939;43.596;1.320;2023-04-03T15:56:27;14.30;54.10
27506;DHT22;14939;43.596;1.320;2023-04-03T15:58:53;14.40;55.50
27506;DHT22;14939;43.596;1.320;2023-04-03T16:01:19;15.00;54.80
27506;DHT22;14939;43.596;1.320;2023-04-03T16:03:44;15.10;53.40
27506;DHT22;14939;43.596;1.320;2023-04-03T16:06:14;15.10;54.60
27506;DHT22;14939;43.596;1.320;2023-04-03T16:08:41;14.90;53.80
27506;DHT22;14939;43.596;1.320;2023-04-03T16:11:08;14.60;52.40
27506;DHT22;14939;43.596;1.320;2023-04-03T16:13:34;14.40;53.70
27506;DHT22;14939;43.596;1.320;2023-04-03T16:16:00;14.30;54.60
27506;DHT22;14939;43.596;1.320;2023-04-03T16:18:28;14.20;55.50
27506;DHT22;14939;43.596;1.320;2023-04-03T16:20:54;14.30;54.50
27506;DHT22;14939;43.596;1.320;2023-04-03T16:23:20;14.20;55.50
27506;DHT22;14939;43.596;1.320;2023-04-03T16:25:46;14.10;56.70
27506;DHT22;14939;43.596;1.320;2023-04-03T16:28:16;14.00;56.40
27506;DHT22;14939;43.596;1.320;2023-04-03T16:30:44;13.90;58.60
27506;DHT22;14939;43.596;1.320;2023-04-03T16:33:11;13.90;58.70
27506;DHT22;14939;43.596;1.320;2023-04-03T16:35:37;14.00;57.70
27506;DHT22;14939;43.596;1.320;2023-04-03T16:38:03;15.70;55.20
27506;DHT22;14939;43.596;1.320;2023-04-03T16:40:29;18.00;47.70
27506;DHT22;14939;43.596;1.320;2023-04-03T16:42:55;18.90;44.30
27506;DHT22;14939;43.596;1.320;2023-04-03T16:45:21;20.00;40.00
27506;DHT22;14939;43.596;1.320;2023-04-03T16:47:47;19.70;39.80
27506;DHT22;14939;43.596;1.320;2023-04-03T16:50:13;20.30;36.60
27506;DHT22;14939;43.596;1.320;2023-04-03T16:52:38;19.10;36.10
27506;DHT22;14939;43.596;1.320;2023-04-03T16:55:05;19.00;38.20
27506;DHT22;14939;43.596;1.320;2023-04-03T16:57:30;20.00;35.40
27506;DHT22;14939;43.596;1.320;2023-04-03T16:59:56;19.10;37.00
27506;DHT22;14939;43.596;1.320;2023-04-03T17:02:22;18.60;38.10
27506;DHT22;14939;43.596;1.320;2023-04-03T17:04:52;18.80;36.40
27506;DHT22;14939;43.596;1.320;2023-04-03T17:07:19;18.50;36.00
27506;DHT22;14939;43.596;1.320;2023-04-03T17:09:45;17.60;39.50
27506;DHT22;14939;43.596;1.320;2023-04-03T17:12:11;16.00;44.50
27506;DHT22;14939;43.596;1.320;2023-04-03T17:14:36;15.40;47.30
27506;DHT22;14939;43.596;1.320;2023-04-03T17:17:03;14.60;50.00
27506;DHT22;14939;43.596;1.320;2023-04-03T17:19:29;14.40;51.40
27506;DHT22;14939;43.596;1.320;2023-04-03T17:21:56;14.80;51.30
27506;DHT22;14939;43.596;1.320;2023-04-03T17:24:21;14.20;52.10